Terminal Aerodrome Forecast
Issued by NWS

Home | Current Version | Previous Version | Text Only | Print | Product List | Glossary On
Versions: 1 2 3 4 5 6 7 8 9 10 11 12 13 14 15 16 17 18
000
FTUS45 KVEF 251451 AAA
TAFVGT
TAF AMD
KVGT 251451Z 2515/2612 17010KT P6SM SCT120 BKN200
     FM251700 19012G20KT P6SM SCT100 BKN200
     FM252000 24022G32KT P6SM SCT080 BKN150
     FM260000 33015G20KT P6SM VCSH BKN080 OVC120
     FM260400 34012G18KT P6SM FEW100 SCT200=

USA.gov is the U.S. government's official web portal to all federal, state and local government web resources and services.